Time;durP1;ratioP1;P1;durP2;ratioP2;P2;SDS_P1;SDS_P2;PMS_P1;PMS_P2;Temp;Humidity;BMP_temperature;BMP_pressure;BME280_temperature;BME280_humidity;BME280_pressure;Samples;Min_cycle;Max_cycle;Signal;HPM_P1;HPM_P2
2022/09/10 00:00:06;;;;;;;2.83;0.47;;;;;;;;;;5090010;28;20411;-65
2022/09/10 00:02:32;;;;;;;0.60;0.60;;;;;;;;;;5089007;28;20465;-65
2022/09/10 00:05:01;;;;;;;4.77;0.60;;;;;;;;;;5090411;28;20432;-65
2022/09/10 00:07:27;;;;;;;0.60;0.60;;;;;;;;;;5089478;28;20484;-65
2022/09/10 00:09:53;;;;;;;1.67;0.40;;;;;;;;;;5090248;28;20874;-65
2022/09/10 00:12:19;;;;;;;1.30;0.60;;;;;;;;;;5090661;28;20432;-65
2022/09/10 00:14:45;;;;;;;1.13;0.60;;;;;;;;;;5089459;28;20432;-65
2022/09/10 00:17:11;;;;;;;2.63;0.63;;;;;;;;;;5090435;28;20458;-65
2022/09/10 00:19:37;;;;;;;1.33;0.53;;;;;;;;;;5089284;28;20420;-65
2022/09/10 00:22:03;;;;;;;0.47;0.47;;;;;;;;;;5090851;28;20490;-65
2022/09/10 00:24:29;;;;;;;0.50;0.50;;;;;;;;;;5090342;28;20439;-65
2022/09/10 00:26:55;;;;;;;0.43;0.43;;;;;;;;;;5089801;28;20479;-65
2022/09/10 00:29:21;;;;;;;1.13;0.50;;;;;;;;;;5088079;28;20430;-65
2022/09/10 00:31:48;;;;;;;0.50;0.50;;;;;;;;;;5090186;28;20488;-65
2022/09/10 00:34:14;;;;;;;1.37;0.50;;;;;;;;;;5090501;28;20507;-65
2022/09/10 00:36:42;;;;;;;0.47;0.47;;;;;;;;;;5089707;28;20864;-65
2022/09/10 00:39:10;;;;;;;9.23;0.80;;;;;;;;;;5089433;28;20477;-65
2022/09/10 00:41:37;;;;;;;2.33;0.57;;;;;;;;;;5089456;28;20451;-65
2022/09/10 00:44:07;;;;;;;2.00;0.50;;;;;;;;;;5090597;28;20912;-65
2022/09/10 00:46:36;;;;;;;0.40;0.40;;;;;;;;;;5089963;28;20621;-65
2022/09/10 00:49:05;;;;;;;4.50;0.87;;;;;;;;;;5090152;28;20432;-65
2022/09/10 00:51:34;;;;;;;0.40;0.40;;;;;;;;;;5089258;28;20920;-65
2022/09/10 00:54:01;;;;;;;0.57;0.50;;;;;;;;;;5090349;28;20436;-65
2022/09/10 00:56:28;;;;;;;0.57;0.57;;;;;;;;;;5088665;28;20963;-65
2022/09/10 00:58:54;;;;;;;0.70;0.60;;;;;;;;;;5089854;28;21212;-65
2022/09/10 01:01:21;;;;;;;0.50;0.47;;;;;;;;;;5088680;28;20442;-65
2022/09/10 01:03:47;;;;;;;3.13;0.43;;;;;;;;;;5089206;28;20440;-65
2022/09/10 01:06:13;;;;;;;1.30;0.60;;;;;;;;;;5087708;28;20472;-65
2022/09/10 01:08:39;;;;;;;4.90;0.67;;;;;;;;;;5089486;28;20797;-65
2022/09/10 01:11:05;;;;;;;0.60;0.43;;;;;;;;;;5088952;28;20435;-65
2022/09/10 01:13:50;;;;;;;0.40;0.40;;;;;;;;;;5089617;28;20317;-65
2022/09/10 01:16:21;;;;;;;1.17;0.50;;;;;;;;;;5089352;28;20424;-65
2022/09/10 01:18:48;;;;;;;2.03;0.60;;;;;;;;;;5088912;28;20928;-65
2022/09/10 01:21:22;;;;;;;0.77;0.63;;;;;;;;;;5089080;28;20778;-66
2022/09/10 01:24:11;;;;;;;0.80;0.80;;;;;;;;;;5088163;28;21204;-65
2022/09/10 01:26:37;;;;;;;1.07;0.50;;;;;;;;;;5087867;28;20482;-65
2022/09/10 01:29:22;;;;;;;0.63;0.63;;;;;;;;;;5090056;28;20515;-66
2022/09/10 01:31:51;;;;;;;0.50;0.40;;;;;;;;;;5088263;28;20421;-65
2022/09/10 01:34:19;;;;;;;1.90;0.80;;;;;;;;;;5089749;28;20443;-65
2022/09/10 01:36:49;;;;;;;0.50;0.50;;;;;;;;;;5089317;28;20508;-65
2022/09/10 01:39:16;;;;;;;1.50;0.40;;;;;;;;;;5088742;28;20464;-65
2022/09/10 01:41:42;;;;;;;0.47;0.47;;;;;;;;;;5089523;28;20416;-65
2022/09/10 01:44:28;;;;;;;3.17;1.30;;;;;;;;;;5089360;28;20436;-65
2022/09/10 01:46:59;;;;;;;1.80;0.53;;;;;;;;;;5088423;28;20893;-65
2022/09/10 01:49:38;;;;;;;2.77;0.50;;;;;;;;;;5088786;28;20428;-66
2022/09/10 01:52:27;;;;;;;0.60;0.60;;;;;;;;;;5089429;28;20432;-65
2022/09/10 01:54:55;;;;;;;3.13;0.60;;;;;;;;;;5087438;28;20428;-66
2022/09/10 01:57:29;;;;;;;8.07;0.60;;;;;;;;;;5087870;28;20459;-65
2022/09/10 02:00:05;;;;;;;1.33;0.50;;;;;;;;;;5088788;28;20469;-65
2022/09/10 02:02:50;;;;;;;2.30;0.40;;;;;;;;;;5089120;28;20513;-65
2022/09/10 02:05:18;;;;;;;1.07;0.97;;;;;;;;;;5089239;28;20436;-65
2022/09/10 02:07:45;;;;;;;1.80;0.50;;;;;;;;;;5088958;28;20597;-65
2022/09/10 02:10:11;;;;;;;1.10;0.57;;;;;;;;;;5089053;28;20832;-65
2022/09/10 02:12:38;;;;;;;2.53;0.60;;;;;;;;;;5088874;28;20432;-65
2022/09/10 02:15:06;;;;;;;0.97;0.90;;;;;;;;;;5092351;28;20443;-65
2022/09/10 02:17:34;;;;;;;2.00;0.67;;;;;;;;;;5093180;28;20785;-65
2022/09/10 02:20:01;;;;;;;0.67;0.43;;;;;;;;;;5091779;28;20819;-65
2022/09/10 02:22:28;;;;;;;3.37;0.70;;;;;;;;;;5091548;28;22165;-65
2022/09/10 02:24:54;;;;;;;0.60;0.60;;;;;;;;;;5091466;28;20464;-65
2022/09/10 02:27:22;;;;;;;3.30;0.83;;;;;;;;;;5092332;28;20571;-65
2022/09/10 02:29:48;;;;;;;1.43;0.50;;;;;;;;;;5091847;28;20523;-65
2022/09/10 02:32:14;;;;;;;0.43;0.43;;;;;;;;;;5092317;28;20519;-65
2022/09/10 02:34:40;;;;;;;1.97;0.87;;;;;;;;;;5090634;28;20425;-65
2022/09/10 02:37:06;;;;;;;0.60;0.60;;;;;;;;;;5092114;28;20428;-65
2022/09/10 02:39:32;;;;;;;0.70;0.70;;;;;;;;;;5090454;28;20852;-65
2022/09/10 02:41:58;;;;;;;1.30;0.50;;;;;;;;;;5092339;28;20462;-65
2022/09/10 02:44:26;;;;;;;1.80;0.63;;;;;;;;;;5092569;28;20420;-65
2022/09/10 02:46:52;;;;;;;1.70;0.60;;;;;;;;;;5092156;28;20483;-65
2022/09/10 02:49:19;;;;;;;4.27;0.93;;;;;;;;;;5091935;28;20420;-65
2022/09/10 02:51:45;;;;;;;1.77;0.60;;;;;;;;;;5091965;28;20401;-65
2022/09/10 02:54:11;;;;;;;0.63;0.50;;;;;;;;;;5092325;28;20427;-65
2022/09/10 02:56:37;;;;;;;0.40;0.40;;;;;;;;;;5092183;28;20433;-65
2022/09/10 02:59:03;;;;;;;0.97;0.70;;;;;;;;;;5092029;28;20605;-65
2022/09/10 03:01:29;;;;;;;1.27;0.60;;;;;;;;;;5091400;28;20974;-65
2022/09/10 03:03:57;;;;;;;5.07;0.73;;;;;;;;;;5089237;28;20440;-65
2022/09/10 03:06:24;;;;;;;3.70;0.70;;;;;;;;;;5092226;28;20847;-65
2022/09/10 03:08:50;;;;;;;0.70;0.60;;;;;;;;;;5090875;28;20440;-65
2022/09/10 03:11:16;;;;;;;1.07;0.60;;;;;;;;;;5091550;28;21249;-65
2022/09/10 03:13:44;;;;;;;0.40;0.40;;;;;;;;;;5091780;28;20429;-65
2022/09/10 03:16:12;;;;;;;0.50;0.50;;;;;;;;;;5091480;28;20416;-65
2022/09/10 03:18:38;;;;;;;0.80;0.73;;;;;;;;;;5092141;28;20464;-65
2022/09/10 03:21:11;;;;;;;3.40;0.70;;;;;;;;;;5091450;28;20913;-65
2022/09/10 03:23:39;;;;;;;1.17;0.70;;;;;;;;;;5091154;28;20437;-65
2022/09/10 03:26:05;;;;;;;0.50;0.50;;;;;;;;;;5090072;28;20433;-65
2022/09/10 03:28:31;;;;;;;0.60;0.60;;;;;;;;;;5091792;28;21009;-65
2022/09/10 03:30:57;;;;;;;0.70;0.70;;;;;;;;;;5089370;28;20503;-65
2022/09/10 03:33:23;;;;;;;0.40;0.40;;;;;;;;;;5091251;28;20492;-65
2022/09/10 03:35:51;;;;;;;0.50;0.50;;;;;;;;;;5091094;28;20521;-65
2022/09/10 03:38:17;;;;;;;0.83;0.50;;;;;;;;;;5090583;28;20511;-65
2022/09/10 03:40:43;;;;;;;0.40;0.40;;;;;;;;;;5091384;28;20498;-65
2022/09/10 03:43:09;;;;;;;0.40;0.40;;;;;;;;;;5091160;28;20948;-65
2022/09/10 03:45:35;;;;;;;1.33;1.23;;;;;;;;;;5089260;28;20767;-65
2022/09/10 03:48:02;;;;;;;7.80;0.80;;;;;;;;;;5087372;28;20515;-65
2022/09/10 03:50:29;;;;;;;3.43;0.60;;;;;;;;;;5089485;28;20931;-65
2022/09/10 03:52:55;;;;;;;0.50;0.50;;;;;;;;;;5088425;28;20810;-65
2022/09/10 03:55:22;;;;;;;0.50;0.50;;;;;;;;;;5091077;28;20437;-65
2022/09/10 03:57:47;;;;;;;0.63;0.63;;;;;;;;;;5089163;28;20501;-65
2022/09/10 04:00:14;;;;;;;0.70;0.60;;;;;;;;;;5089761;28;20467;-65
2022/09/10 04:02:40;;;;;;;0.90;0.90;;;;;;;;;;5089775;28;20840;-65
2022/09/10 04:05:07;;;;;;;1.90;0.50;;;;;;;;;;5090042;28;20428;-65
2022/09/10 04:07:33;;;;;;;2.00;0.60;;;;;;;;;;5091086;28;20472;-65
2022/09/10 04:09:59;;;;;;;1.33;0.50;;;;;;;;;;5087181;28;22093;-65
2022/09/10 04:12:25;;;;;;;0.47;0.47;;;;;;;;;;5090593;28;20429;-65
2022/09/10 04:14:52;;;;;;;0.60;0.60;;;;;;;;;;5089534;28;20459;-65
2022/09/10 04:17:18;;;;;;;2.30;0.70;;;;;;;;;;5089477;28;20433;-65
2022/09/10 04:19:44;;;;;;;0.60;0.60;;;;;;;;;;5090327;28;20435;-65
2022/09/10 04:22:10;;;;;;;0.63;0.37;;;;;;;;;;5089885;28;20845;-65
2022/09/10 04:24:36;;;;;;;0.60;0.60;;;;;;;;;;5089654;28;20443;-65
2022/09/10 04:27:03;;;;;;;0.60;0.50;;;;;;;;;;5089671;28;21004;-65
2022/09/10 04:29:30;;;;;;;0.77;0.63;;;;;;;;;;5088488;28;20443;-65
2022/09/10 04:31:57;;;;;;;0.70;0.70;;;;;;;;;;5087450;28;20937;-65
2022/09/10 04:34:23;;;;;;;0.50;0.50;;;;;;;;;;5089051;28;20432;-65
2022/09/10 04:36:49;;;;;;;1.73;0.40;;;;;;;;;;5089067;28;20429;-65
2022/09/10 04:39:15;;;;;;;1.57;0.60;;;;;;;;;;5088272;28;20427;-65
2022/09/10 04:41:41;;;;;;;0.50;0.40;;;;;;;;;;5089650;28;20451;-65
2022/09/10 04:44:07;;;;;;;0.63;0.63;;;;;;;;;;5087333;28;20445;-65
2022/09/10 04:46:33;;;;;;;2.53;0.67;;;;;;;;;;5088068;28;20480;-66
2022/09/10 04:48:59;;;;;;;0.60;0.50;;;;;;;;;;5090037;28;20433;-65
2022/09/10 04:51:25;;;;;;;6.40;0.90;;;;;;;;;;5089690;28;20452;-65
2022/09/10 04:53:52;;;;;;;0.50;0.50;;;;;;;;;;5089194;28;20776;-65
2022/09/10 04:56:19;;;;;;;1.80;0.50;;;;;;;;;;5089738;28;20847;-65
2022/09/10 04:58:45;;;;;;;0.77;0.40;;;;;;;;;;5087350;28;20575;-65
2022/09/10 05:01:11;;;;;;;0.83;0.50;;;;;;;;;;5087568;28;20863;-65
2022/09/10 05:03:37;;;;;;;1.17;0.67;;;;;;;;;;5087888;28;20932;-65
2022/09/10 05:06:04;;;;;;;2.63;0.60;;;;;;;;;;5088323;28;20443;-65
2022/09/10 05:08:30;;;;;;;2.97;0.83;;;;;;;;;;5087908;28;20768;-65
2022/09/10 05:10:56;;;;;;;0.80;0.60;;;;;;;;;;5088979;28;21036;-65
2022/09/10 05:13:23;;;;;;;0.87;0.77;;;;;;;;;;5088782;28;20797;-65
2022/09/10 05:15:49;;;;;;;0.80;0.63;;;;;;;;;;5088277;28;20439;-65
2022/09/10 05:18:15;;;;;;;0.80;0.50;;;;;;;;;;5089447;28;20428;-65
2022/09/10 05:20:43;;;;;;;0.63;0.53;;;;;;;;;;5089369;28;20443;-65
2022/09/10 05:23:09;;;;;;;1.10;0.60;;;;;;;;;;5089372;28;20428;-65
2022/09/10 05:25:36;;;;;;;1.80;0.90;;;;;;;;;;5089497;28;20456;-65
2022/09/10 05:28:04;;;;;;;4.00;1.10;;;;;;;;;;5088264;28;20990;-65
2022/09/10 05:30:31;;;;;;;0.97;0.50;;;;;;;;;;5088929;28;20425;-65
2022/09/10 05:32:58;;;;;;;3.90;0.90;;;;;;;;;;5088970;28;20432;-65
2022/09/10 05:35:24;;;;;;;1.13;1.03;;;;;;;;;;5088101;28;20482;-65
2022/09/10 05:37:49;;;;;;;1.33;0.90;;;;;;;;;;5089854;28;20436;-65
2022/09/10 05:40:15;;;;;;;8.43;1.03;;;;;;;;;;5087793;28;20868;-65
2022/09/10 05:42:41;;;;;;;0.83;0.50;;;;;;;;;;5090084;28;20420;-65
2022/09/10 05:45:09;;;;;;;1.63;0.70;;;;;;;;;;5087435;28;20428;-65
2022/09/10 05:47:36;;;;;;;3.43;2.10;;;;;;;;;;5088254;28;20488;-65
2022/09/10 05:50:02;;;;;;;1.53;0.93;;;;;;;;;;5089095;28;20424;-64
2022/09/10 05:52:29;;;;;;;1.87;1.07;;;;;;;;;;5091383;28;20458;-64
2022/09/10 05:54:55;;;;;;;0.73;0.73;;;;;;;;;;5089260;28;20436;-64
2022/09/10 05:57:21;;;;;;;1.57;0.73;;;;;;;;;;5091005;28;20440;-66
2022/09/10 05:59:47;;;;;;;2.63;0.50;;;;;;;;;;5091085;28;20519;-66
2022/09/10 06:02:17;;;;;;;3.50;0.90;;;;;;;;;;5092396;28;20440;-65
2022/09/10 06:04:43;;;;;;;0.97;0.70;;;;;;;;;;5090124;28;20416;-66
2022/09/10 06:07:09;;;;;;;1.90;0.87;;;;;;;;;;5091382;28;20533;-65
2022/09/10 06:09:35;;;;;;;1.50;0.73;;;;;;;;;;5089413;28;20443;-65
2022/09/10 06:12:01;;;;;;;1.93;1.40;;;;;;;;;;5091356;28;20436;-65
2022/09/10 06:14:27;;;;;;;1.03;0.70;;;;;;;;;;5090901;28;20451;-65
2022/09/10 06:16:54;;;;;;;1.83;0.87;;;;;;;;;;5085183;28;20436;-66
2022/09/10 06:19:20;;;;;;;0.70;0.67;;;;;;;;;;5089536;28;20486;-65
2022/09/10 06:21:46;;;;;;;2.47;0.80;;;;;;;;;;5090748;28;20525;-66
2022/09/10 06:24:13;;;;;;;1.00;0.97;;;;;;;;;;5090765;28;20425;-65
2022/09/10 06:26:39;;;;;;;1.30;0.50;;;;;;;;;;5088823;28;20532;-65
2022/09/10 06:29:05;;;;;;;2.00;0.80;;;;;;;;;;5089600;28;20504;-65
2022/09/10 06:31:31;;;;;;;2.07;0.80;;;;;;;;;;5091521;28;20206;-65
2022/09/10 06:33:57;;;;;;;1.87;0.90;;;;;;;;;;5090935;28;20427;-65
2022/09/10 06:36:23;;;;;;;1.33;0.73;;;;;;;;;;5090914;28;20940;-66
2022/09/10 06:38:49;;;;;;;1.20;0.67;;;;;;;;;;5092724;28;20944;-65
2022/09/10 06:41:15;;;;;;;3.33;0.80;;;;;;;;;;5089153;28;20498;-68
2022/09/10 06:43:42;;;;;;;0.77;0.77;;;;;;;;;;5085876;28;20187;-68
2022/09/10 06:46:15;;;;;;;1.70;0.80;;;;;;;;;;5089305;28;20535;-65
2022/09/10 06:48:41;;;;;;;1.10;0.70;;;;;;;;;;5092274;28;20420;-65
2022/09/10 06:51:07;;;;;;;2.37;0.60;;;;;;;;;;5091968;28;20927;-65
2022/09/10 06:53:34;;;;;;;5.70;1.60;;;;;;;;;;5091077;28;20489;-65
2022/09/10 06:56:00;;;;;;;2.20;1.00;;;;;;;;;;5090218;28;20836;-65
2022/09/10 06:58:27;;;;;;;1.50;1.20;;;;;;;;;;5091418;28;20482;-65
2022/09/10 07:00:54;;;;;;;1.70;1.40;;;;;;;;;;5091303;28;20412;-65
2022/09/10 07:03:21;;;;;;;0.90;0.80;;;;;;;;;;5088853;28;20515;-65
2022/09/10 07:05:47;;;;;;;1.53;1.27;;;;;;;;;;5090047;28;20425;-65
2022/09/10 07:08:15;;;;;;;0.60;0.60;;;;;;;;;;5091591;28;20985;-65
2022/09/10 07:10:43;;;;;;;2.00;0.80;;;;;;;;;;5088966;28;20428;-65
2022/09/10 07:13:09;;;;;;;2.67;0.73;;;;;;;;;;5090711;28;20496;-66
2022/09/10 07:15:35;;;;;;;0.67;0.67;;;;;;;;;;5090248;28;20515;-65
2022/09/10 07:18:01;;;;;;;3.90;0.67;;;;;;;;;;5092157;28;20842;-65
2022/09/10 07:20:28;;;;;;;4.90;0.73;;;;;;;;;;5091348;28;20576;-69
2022/09/10 07:22:58;;;;;;;2.30;1.10;;;;;;;;;;5091873;28;20527;-64
2022/09/10 07:25:25;;;;;;;1.70;0.90;;;;;;;;;;5090880;28;20420;-65
2022/09/10 07:27:51;;;;;;;1.80;1.70;;;;;;;;;;5090387;28;20488;-65
2022/09/10 07:30:18;;;;;;;4.93;0.80;;;;;;;;;;5086217;28;20468;-65
2022/09/10 07:32:45;;;;;;;2.23;0.83;;;;;;;;;;5091643;28;20466;-65
2022/09/10 07:35:11;;;;;;;13.97;0.93;;;;;;;;;;5089417;28;20437;-66
2022/09/10 07:37:38;;;;;;;1.33;0.70;;;;;;;;;;5090837;28;20954;-65
2022/09/10 07:40:04;;;;;;;3.23;1.03;;;;;;;;;;5090690;28;20439;-72
2022/09/10 07:42:30;;;;;;;1.03;0.80;;;;;;;;;;5091796;28;20967;-83
2022/09/10 07:44:56;;;;;;;2.50;1.03;;;;;;;;;;5089024;28;20424;-83
2022/09/10 07:47:24;;;;;;;5.00;3.23;;;;;;;;;;5085180;28;20542;-64
2022/09/10 07:49:51;;;;;;;3.60;1.00;;;;;;;;;;5089389;28;20183;-65
2022/09/10 07:52:17;;;;;;;1.70;0.87;;;;;;;;;;5089783;28;20440;-66
2022/09/10 07:54:43;;;;;;;4.43;1.03;;;;;;;;;;5089260;28;20433;-66
2022/09/10 07:57:09;;;;;;;1.37;0.90;;;;;;;;;;5089720;28;20451;-65
2022/09/10 07:59:35;;;;;;;3.47;0.80;;;;;;;;;;5089839;28;20792;-65
2022/09/10 08:02:01;;;;;;;5.70;0.63;;;;;;;;;;5090313;28;20429;-65
2022/09/10 08:04:31;;;;;;;10.60;0.90;;;;;;;;;;5086988;28;20429;-66
2022/09/10 08:06:57;;;;;;;1.70;1.10;;;;;;;;;;5088020;28;21923;-66
2022/09/10 08:09:24;;;;;;;1.30;0.87;;;;;;;;;;5090142;28;20503;-65
2022/09/10 08:11:50;;;;;;;1.73;0.73;;;;;;;;;;5089427;28;20523;-65
2022/09/10 08:14:16;;;;;;;2.10;0.80;;;;;;;;;;5089906;28;20930;-65
2022/09/10 08:16:42;;;;;;;0.93;0.80;;;;;;;;;;5088006;28;20482;-67
2022/09/10 08:19:09;;;;;;;1.73;1.10;;;;;;;;;;5088906;28;20490;-66
2022/09/10 08:21:35;;;;;;;1.50;0.93;;;;;;;;;;5090749;28;20466;-66
2022/09/10 08:24:02;;;;;;;0.80;0.73;;;;;;;;;;5091169;28;20520;-65
2022/09/10 08:26:28;;;;;;;0.93;0.90;;;;;;;;;;5088724;28;20468;-65
2022/09/10 08:28:55;;;;;;;7.03;1.20;;;;;;;;;;5088558;28;20536;-65
2022/09/10 08:31:21;;;;;;;1.67;0.83;;;;;;;;;;5086312;28;20991;-66
2022/09/10 08:33:49;;;;;;;4.40;0.97;;;;;;;;;;5089948;28;20501;-66
2022/09/10 08:36:15;;;;;;;0.83;0.80;;;;;;;;;;5088038;28;20425;-68
2022/09/10 08:38:42;;;;;;;0.80;0.80;;;;;;;;;;5089319;28;20788;-61
2022/09/10 08:41:30;;;;;;;1.37;0.70;;;;;;;;;;5089849;28;20429;-60
2022/09/10 08:43:56;;;;;;;0.57;0.57;;;;;;;;;;5057525;28;20447;-61
2022/09/10 08:46:26;;;;;;;0.70;0.70;;;;;;;;;;5082685;28;20472;-61
2022/09/10 08:49:18;;;;;;;1.30;0.43;;;;;;;;;;5088832;28;20191;-60
2022/09/10 08:51:48;;;;;;;0.83;0.70;;;;;;;;;;5086491;28;20519;-61
2022/09/10 08:54:17;;;;;;;0.60;0.60;;;;;;;;;;5087834;28;20429;-61
2022/09/10 08:56:44;;;;;;;1.50;0.70;;;;;;;;;;5087129;28;20464;-61
2022/09/10 08:59:23;;;;;;;1.93;1.10;;;;;;;;;;5084927;28;21713;-61
2022/09/10 09:01:58;;;;;;;0.50;0.50;;;;;;;;;;5088384;28;20433;-60
2022/09/10 09:04:43;;;;;;;2.63;0.50;;;;;;;;;;5087380;28;20428;-61
2022/09/10 09:07:13;;;;;;;2.50;0.60;;;;;;;;;;5087478;28;20480;-60
2022/09/10 09:09:38;;;;;;;0.70;0.70;;;;;;;;;;5085392;28;20429;-62
2022/09/10 09:12:13;;;;;;;0.70;0.70;;;;;;;;;;5088066;28;20959;-61
2022/09/10 09:14:52;;;;;;;0.60;0.60;;;;;;;;;;5088735;28;20490;-61
2022/09/10 09:17:23;;;;;;;0.60;0.60;;;;;;;;;;5087366;28;20451;-60
2022/09/10 09:20:03;;;;;;;3.23;1.40;;;;;;;;;;5087712;28;20459;-61
2022/09/10 09:22:42;;;;;;;0.93;0.80;;;;;;;;;;5088800;28;20432;-61
2022/09/10 09:25:18;;;;;;;2.47;0.80;;;;;;;;;;5086598;28;20431;-62
2022/09/10 09:27:45;;;;;;;0.60;0.40;;;;;;;;;;5086151;28;20491;-60
2022/09/10 09:30:14;;;;;;;0.57;0.57;;;;;;;;;;5085819;28;20580;-61
2022/09/10 09:32:42;;;;;;;0.97;0.83;;;;;;;;;;5086066;28;20779;-61
2022/09/10 09:35:27;;;;;;;0.70;0.70;;;;;;;;;;5086967;28;20938;-61
2022/09/10 09:38:04;;;;;;;4.60;0.90;;;;;;;;;;5084295;28;20433;-61
2022/09/10 09:40:36;;;;;;;0.70;0.70;;;;;;;;;;5087970;28;20803;-61
2022/09/10 09:43:12;;;;;;;0.80;0.80;;;;;;;;;;5087176;28;20507;-60
2022/09/10 09:45:42;;;;;;;0.60;0.60;;;;;;;;;;5087713;28;20428;-61
2022/09/10 09:48:13;;;;;;;0.97;0.80;;;;;;;;;;5087443;28;20476;-61
2022/09/10 09:50:41;;;;;;;0.50;0.50;;;;;;;;;;5086620;28;20800;-60
2022/09/10 09:53:09;;;;;;;1.03;0.67;;;;;;;;;;5082722;28;20600;-60
2022/09/10 09:55:43;;;;;;;17.73;1.70;;;;;;;;;;5084632;28;20476;-60
2022/09/10 09:58:22;;;;;;;0.70;0.70;;;;;;;;;;5088677;28;20460;-62
2022/09/10 10:00:52;;;;;;;1.70;0.60;;;;;;;;;;5087757;28;20409;-61
2022/09/10 10:03:20;;;;;;;1.57;0.70;;;;;;;;;;5088763;28;20436;-61
2022/09/10 10:05:47;;;;;;;0.57;0.57;;;;;;;;;;5085467;28;20527;-61
2022/09/10 10:08:27;;;;;;;0.60;0.60;;;;;;;;;;5088495;28;20549;-61
2022/09/10 10:10:53;;;;;;;2.43;0.73;;;;;;;;;;5087378;28;20436;-60
2022/09/10 10:13:23;;;;;;;1.10;0.70;;;;;;;;;;5087080;28;20997;-66
2022/09/10 10:15:49;;;;;;;0.83;0.70;;;;;;;;;;5084626;28;20456;-66
2022/09/10 10:18:24;;;;;;;2.00;1.20;;;;;;;;;;5086586;28;20433;-66
2022/09/10 10:21:10;;;;;;;0.80;0.80;;;;;;;;;;5081977;28;20486;-65
2022/09/10 10:23:37;;;;;;;1.67;0.90;;;;;;;;;;5069242;28;20435;-64
2022/09/10 10:26:22;;;;;;;1.23;1.10;;;;;;;;;;5084487;28;20432;-65
2022/09/10 10:28:58;;;;;;;1.30;0.60;;;;;;;;;;5082805;28;20451;-65
2022/09/10 10:31:32;;;;;;;1.03;0.90;;;;;;;;;;5084866;28;20420;-68
2022/09/10 10:34:07;;;;;;;0.80;0.80;;;;;;;;;;5086831;28;20439;-65
2022/09/10 10:36:42;;;;;;;1.90;1.40;;;;;;;;;;5087727;28;20434;-65
2022/09/10 10:39:19;;;;;;;0.90;0.77;;;;;;;;;;5087779;28;20416;-66
2022/09/10 10:42:03;;;;;;;0.90;0.90;;;;;;;;;;5089200;28;20820;-66
2022/09/10 10:44:39;;;;;;;5.13;1.03;;;;;;;;;;5086984;28;20428;-64
2022/09/10 10:47:23;;;;;;;4.10;1.10;;;;;;;;;;5090397;28;20837;-65
2022/09/10 10:50:05;;;;;;;0.83;0.83;;;;;;;;;;5087257;28;20428;-65
2022/09/10 10:52:40;;;;;;;6.17;1.10;;;;;;;;;;5088591;28;20437;-66
2022/09/10 10:55:18;;;;;;;2.47;0.83;;;;;;;;;;5091022;28;20429;-65
2022/09/10 10:57:44;;;;;;;2.10;0.90;;;;;;;;;;5087948;28;21039;-65
2022/09/10 11:00:13;;;;;;;1.00;0.87;;;;;;;;;;5088606;28;20474;-66
2022/09/10 11:02:49;;;;;;;3.00;0.80;;;;;;;;;;5090919;28;20734;-65
2022/09/10 11:05:22;;;;;;;10.60;3.07;;;;;;;;;;5088691;28;20806;-65
2022/09/10 11:07:48;;;;;;;5.27;1.70;;;;;;;;;;5091779;28;22017;-65
2022/09/10 11:10:14;;;;;;;2.17;1.20;;;;;;;;;;5090612;28;20825;-65
2022/09/10 11:12:46;;;;;;;2.00;1.13;;;;;;;;;;5090889;28;20985;-71
2022/09/10 11:15:27;;;;;;;1.27;1.17;;;;;;;;;;5090171;28;20552;-72
2022/09/10 11:17:58;;;;;;;3.13;1.10;;;;;;;;;;5089737;28;20928;-72
2022/09/10 11:20:31;;;;;;;14.10;1.83;;;;;;;;;;5086400;28;20460;-68
2022/09/10 11:23:05;;;;;;;1.00;1.00;;;;;;;;;;5090200;28;20935;-65
2022/09/10 11:25:33;;;;;;;3.33;1.93;;;;;;;;;;5091125;28;20424;-65
2022/09/10 11:28:18;;;;;;;2.30;1.80;;;;;;;;;;5090056;28;20479;-65
2022/09/10 11:30:47;;;;;;;1.60;1.23;;;;;;;;;;5089442;28;21169;-65
2022/09/10 11:33:13;;;;;;;3.67;1.40;;;;;;;;;;5091874;28;20424;-65
2022/09/10 11:35:54;;;;;;;2.23;1.03;;;;;;;;;;5090705;28;20431;-65
2022/09/10 11:38:24;;;;;;;2.33;0.60;;;;;;;;;;5090215;28;20436;-65
2022/09/10 11:40:55;;;;;;;0.70;0.70;;;;;;;;;;5091370;28;20415;-65
2022/09/10 11:43:24;;;;;;;0.40;0.40;;;;;;;;;;5090145;28;20477;-66
2022/09/10 11:45:59;;;;;;;2.30;0.50;;;;;;;;;;5088340;28;20448;-65
2022/09/10 11:48:31;;;;;;;2.67;1.23;;;;;;;;;;5091657;28;20796;-65
2022/09/10 11:51:00;;;;;;;2.07;1.00;;;;;;;;;;5091265;28;20419;-65
2022/09/10 11:53:27;;;;;;;4.30;1.70;;;;;;;;;;5091506;28;20416;-65
2022/09/10 11:55:59;;;;;;;3.23;0.80;;;;;;;;;;5090474;28;20431;-65
2022/09/10 11:58:29;;;;;;;0.77;0.60;;;;;;;;;;5091242;28;20888;-65
2022/09/10 12:01:05;;;;;;;1.70;0.80;;;;;;;;;;5091051;28;20932;-66
2022/09/10 12:03:51;;;;;;;0.40;0.40;;;;;;;;;;5091371;28;20404;-65
2022/09/10 12:06:32;;;;;;;0.53;0.53;;;;;;;;;;5089821;28;20523;-65
2022/09/10 12:09:05;;;;;;;0.70;0.50;;;;;;;;;;5091345;28;21114;-65
2022/09/10 12:11:31;;;;;;;3.93;0.67;;;;;;;;;;5090297;28;20439;-65
2022/09/10 12:13:59;;;;;;;1.40;1.30;;;;;;;;;;5090803;28;21017;-65
2022/09/10 12:16:28;;;;;;;0.70;0.70;;;;;;;;;;5091334;28;20452;-65
2022/09/10 12:18:55;;;;;;;3.73;1.80;;;;;;;;;;5091179;28;20952;-65
2022/09/10 12:21:27;;;;;;;5.20;0.70;;;;;;;;;;5090503;28;20412;-65
2022/09/10 12:23:53;;;;;;;1.90;1.80;;;;;;;;;;5090905;28;20425;-66
2022/09/10 12:26:20;;;;;;;0.70;0.70;;;;;;;;;;5089416;28;20421;-65
2022/09/10 12:28:49;;;;;;;1.43;0.60;;;;;;;;;;5089829;28;20524;-65
2022/09/10 12:31:16;;;;;;;1.70;0.63;;;;;;;;;;5090240;28;20474;-65
2022/09/10 12:33:45;;;;;;;0.80;0.80;;;;;;;;;;5090906;28;20844;-65
2022/09/10 12:36:13;;;;;;;0.67;0.67;;;;;;;;;;5090724;28;20420;-66
2022/09/10 12:38:57;;;;;;;0.70;0.70;;;;;;;;;;5090886;28;20439;-65
2022/09/10 12:41:23;;;;;;;0.80;0.80;;;;;;;;;;5089019;28;20452;-65
2022/09/10 12:43:49;;;;;;;0.83;0.83;;;;;;;;;;5090273;28;20460;-66
2022/09/10 12:46:17;;;;;;;0.90;0.70;;;;;;;;;;5090369;28;20442;-66
2022/09/10 12:48:47;;;;;;;2.10;0.77;;;;;;;;;;5090929;28;20417;-65
2022/09/10 12:51:19;;;;;;;0.63;0.60;;;;;;;;;;5090330;28;20413;-65
2022/09/10 12:53:46;;;;;;;0.30;0.30;;;;;;;;;;5090424;28;20448;-66
2022/09/10 12:56:20;;;;;;;0.70;0.63;;;;;;;;;;5089523;28;20424;-66
2022/09/10 12:59:05;;;;;;;0.73;0.73;;;;;;;;;;5089685;28;20520;-65
2022/09/10 13:01:38;;;;;;;1.07;1.07;;;;;;;;;;5089700;28;20424;-66
2022/09/10 13:04:04;;;;;;;2.57;0.50;;;;;;;;;;5090143;28;20468;-65
2022/09/10 13:06:40;;;;;;;1.90;0.50;;;;;;;;;;5089072;28;20859;-66
2022/09/10 13:09:20;;;;;;;1.57;0.73;;;;;;;;;;5090201;28;20479;-65
2022/09/10 13:11:48;;;;;;;1.57;0.70;;;;;;;;;;5090015;28;20491;-66
2022/09/10 13:14:27;;;;;;;1.00;0.57;;;;;;;;;;5088695;28;20498;-67
2022/09/10 13:16:54;;;;;;;0.63;0.60;;;;;;;;;;5088873;28;20518;-66
2022/09/10 13:19:20;;;;;;;0.90;0.50;;;;;;;;;;5089832;28;20452;-67
2022/09/10 13:21:47;;;;;;;0.93;0.93;;;;;;;;;;5090268;28;20901;-68
2022/09/10 13:24:33;;;;;;;2.70;0.70;;;;;;;;;;5089776;28;20460;-66
2022/09/10 13:27:09;;;;;;;1.83;0.77;;;;;;;;;;5089916;28;20464;-66
2022/09/10 13:30:01;;;;;;;5.77;0.57;;;;;;;;;;5089147;28;20920;-66
2022/09/10 13:32:31;;;;;;;4.80;0.93;;;;;;;;;;5066170;28;20425;-66
2022/09/10 13:35:04;;;;;;;0.63;0.57;;;;;;;;;;5089308;28;20449;-66
2022/09/10 13:37:39;;;;;;;0.60;0.60;;;;;;;;;;5090097;28;20432;-68
2022/09/10 13:40:05;;;;;;;0.50;0.50;;;;;;;;;;5089008;28;20420;-66
2022/09/10 13:42:31;;;;;;;0.73;0.67;;;;;;;;;;5088596;28;20425;-66
2022/09/10 13:45:00;;;;;;;6.23;0.77;;;;;;;;;;5089170;28;20425;-66
2022/09/10 13:47:28;;;;;;;0.77;0.70;;;;;;;;;;5089685;28;20999;-65
2022/09/10 13:49:58;;;;;;;6.93;1.10;;;;;;;;;;5088196;28;20901;-66
2022/09/10 13:52:27;;;;;;;3.33;0.80;;;;;;;;;;5089004;28;20429;-68
2022/09/10 13:54:54;;;;;;;1.20;0.50;;;;;;;;;;5089380;28;20523;-69
2022/09/10 13:57:23;;;;;;;2.23;1.13;;;;;;;;;;5089385;28;20440;-68
2022/09/10 13:59:51;;;;;;;2.97;1.43;;;;;;;;;;5088942;28;20520;-68
2022/09/10 14:02:20;;;;;;;1.00;0.93;;;;;;;;;;5089533;28;20866;-67
2022/09/10 14:04:46;;;;;;;0.70;0.70;;;;;;;;;;5089233;28;20424;-67
2022/09/10 14:07:21;;;;;;;2.83;0.67;;;;;;;;;;5087649;28;20512;-67
2022/09/10 14:09:49;;;;;;;0.50;0.50;;;;;;;;;;5091331;28;20428;-66
2022/09/10 14:12:17;;;;;;;6.60;2.33;;;;;;;;;;5093881;28;20821;-66
2022/09/10 14:14:44;;;;;;;0.60;0.60;;;;;;;;;;5092816;28;20420;-66
2022/09/10 14:17:13;;;;;;;5.43;0.87;;;;;;;;;;5093009;28;20432;-66
2022/09/10 14:20:00;;;;;;;1.80;1.40;;;;;;;;;;5093007;28;20456;-66
2022/09/10 14:22:27;;;;;;;0.87;0.87;;;;;;;;;;5093234;28;20451;-67
2022/09/10 14:24:53;;;;;;;3.17;0.83;;;;;;;;;;5092532;28;20436;-66
2022/09/10 14:27:36;;;;;;;0.80;0.80;;;;;;;;;;5092852;28;20482;-66
2022/09/10 14:30:17;;;;;;;2.13;0.80;;;;;;;;;;5092807;28;20440;-66
2022/09/10 14:32:45;;;;;;;2.30;0.60;;;;;;;;;;5093239;28;20420;-66
2022/09/10 14:35:29;;;;;;;0.63;0.63;;;;;;;;;;5091980;28;20473;-66
2022/09/10 14:37:55;;;;;;;1.93;0.77;;;;;;;;;;5092920;28;20436;-66
2022/09/10 14:40:21;;;;;;;0.50;0.50;;;;;;;;;;5091172;28;20420;-66
2022/09/10 14:42:48;;;;;;;0.90;0.90;;;;;;;;;;5092714;28;20485;-66
2022/09/10 14:45:34;;;;;;;0.77;0.77;;;;;;;;;;5092595;28;20425;-67
2022/09/10 14:48:00;;;;;;;1.27;0.53;;;;;;;;;;5092548;28;20997;-66
2022/09/10 14:50:30;;;;;;;1.00;0.67;;;;;;;;;;5092208;28;20425;-66
2022/09/10 14:52:57;;;;;;;0.70;0.70;;;;;;;;;;5092760;28;20506;-66
2022/09/10 14:55:24;;;;;;;3.20;2.80;;;;;;;;;;5092354;28;20421;-66